Terminal Aerodrome Forecast
Issued by NWS

Current Version | Previous Version | Text Only | Print | Product List | Glossary Off
Versions: 1 2 3 4 5 6 7 8 9 10 11 12 13 14 15 16 17 18 19 20 21 22 23 24 25 26 27 28 29 30 31 32

055
FTUS41 KRNK 092045 AAB
TAFLWB
TAF AMD
KLWB 092045Z 0921/1018 34006KT P6SM -SN OVC030
     FM100000 29005KT P6SM SCT060
     FM100600 VRB03KT P6SM SCT150=

USA.gov is the U.S. government's official web portal to all federal, state and local government web resources and services.